createdAt,value
2019-06-07T00:01:13.791Z,60.72
2019-06-07T00:03:47.843Z,60.99
2019-06-07T00:06:25.259Z,60.88
2019-06-07T00:08:57.563Z,61.04
2019-06-07T00:11:30.846Z,61.08
2019-06-07T00:14:05.286Z,61.09
2019-06-07T00:16:39.273Z,61.01
2019-06-07T00:19:15.706Z,60.96
2019-06-07T00:24:23.640Z,61.08
2019-06-07T00:26:58.826Z,61.11
2019-06-07T00:29:32.608Z,61.10
2019-06-07T00:32:05.705Z,61.15
2019-06-07T00:34:39.530Z,61.33
2019-06-07T00:37:14.227Z,61.25
2019-06-07T00:40:12.675Z,61.24
2019-06-07T00:42:24.639Z,61.25
2019-06-07T00:44:58.654Z,61.19
2019-06-07T00:47:32.675Z,61.27
2019-06-07T00:50:06.328Z,61.37
2019-06-07T00:53:13.980Z,61.62
2019-06-07T00:55:19.590Z,61.60
2019-06-07T00:57:53.027Z,61.64
2019-06-07T01:00:26.570Z,61.71
2019-06-07T01:03:00.575Z,61.78
2019-06-07T01:05:33.770Z,61.80
2019-06-07T01:08:07.903Z,61.93
2019-06-07T01:10:52.969Z,61.99
2019-06-07T01:13:19.461Z,62.10
2019-06-07T01:15:53.435Z,62.07
2019-06-07T01:18:39.055Z,62.10
2019-06-07T01:21:02.901Z,62.24
2019-06-07T01:26:12.337Z,62.37
2019-06-07T01:28:46.414Z,62.36
2019-06-07T01:31:21.160Z,62.42
2019-06-07T01:33:55.135Z,62.56
2019-06-07T01:36:31.031Z,62.54
2019-06-07T01:39:06.836Z,62.47
2019-06-07T01:41:40.623Z,62.47
2019-06-07T01:44:14.597Z,62.47
2019-06-07T01:46:48.525Z,62.52
2019-06-07T01:49:26.179Z,62.56
2019-06-07T01:51:58.182Z,62.72
2019-06-07T01:57:06.292Z,62.92
2019-06-07T01:59:40.091Z,62.97
2019-06-07T02:02:14.021Z,62.94
2019-06-07T02:04:48.358Z,62.93
2019-06-07T02:07:26.457Z,62.92
2019-06-07T02:09:58.054Z,62.90
2019-06-07T02:12:40.213Z,63.00
2019-06-07T02:15:09.326Z,63.14
2019-06-07T02:17:43.425Z,63.20
2019-06-07T02:20:16.908Z,63.18
2019-06-07T02:22:50.891Z,63.32
2019-06-07T02:25:48.410Z,63.32
2019-06-07T02:28:25.812Z,63.26
2019-06-07T02:30:44.024Z,63.23
2019-06-07T02:33:10.805Z,63.25
2019-06-07T02:35:44.616Z,63.31
2019-06-07T02:38:18.491Z,63.42
2019-06-07T02:40:52.307Z,63.44
2019-06-07T02:43:28.228Z,63.50
2019-06-07T02:46:24.541Z,63.62
2019-06-07T02:48:40.106Z,63.64
2019-06-07T02:51:13.107Z,63.62
2019-06-07T02:53:46.996Z,63.71
2019-06-07T02:56:42.083Z,63.75
2019-06-07T02:58:56.637Z,63.75
2019-06-07T03:01:35.911Z,63.76
2019-06-07T03:04:09.737Z,63.82
2019-06-07T03:06:44.264Z,63.86
2019-06-07T03:09:20.062Z,63.88
2019-06-07T03:11:56.399Z,63.89
2019-06-07T03:14:33.898Z,63.92
2019-06-07T03:17:22.492Z,64.07
2019-06-07T03:19:57.915Z,64.20
2019-06-07T03:22:37.967Z,64.34
2019-06-07T03:25:09.284Z,64.32
2019-06-07T03:27:49.551Z,64.36
2019-06-07T03:32:54.511Z,64.43
2019-06-07T03:35:31.322Z,64.59
2019-06-07T03:38:03.951Z,64.59
2019-06-07T03:40:40.012Z,64.55
2019-06-07T03:43:13.393Z,64.52
2019-06-07T03:45:47.234Z,64.69
2019-06-07T03:48:21.124Z,64.76
2019-06-07T03:51:04.317Z,64.85
2019-06-07T03:53:31.136Z,64.83
2019-06-07T03:56:06.371Z,64.83
2019-06-07T03:58:49.042Z,64.75
2019-06-07T04:01:15.946Z,64.71
2019-06-07T04:03:51.651Z,64.75
2019-06-07T04:06:25.476Z,64.92
2019-06-07T04:08:59.419Z,64.96
2019-06-07T04:11:35.184Z,65.19
2019-06-07T04:14:08.862Z,64.98
2019-06-07T04:16:44.753Z,64.83
2019-06-07T04:19:18.287Z,64.80
2019-06-07T04:21:52.169Z,64.84
2019-06-07T04:24:26.024Z,64.34
2019-06-07T04:26:59.834Z,64.31
2019-06-07T04:29:47.834Z,64.12
2019-06-07T04:32:09.460Z,64.18
2019-06-07T04:34:43.341Z,64.25
2019-06-07T04:37:18.031Z,64.31
2019-06-07T04:39:52.424Z,64.27
2019-06-07T04:42:30.022Z,64.45
2019-06-07T04:45:05.398Z,64.20
2019-06-07T04:47:42.413Z,63.62
2019-06-07T04:50:16.329Z,63.42
2019-06-07T04:52:50.076Z,63.23
2019-06-07T04:55:23.954Z,63.20
2019-06-07T04:57:57.506Z,63.16
2019-06-07T05:00:56.485Z,63.19
2019-06-07T05:03:11.508Z,63.11
2019-06-07T05:05:44.689Z,63.27
2019-06-07T05:08:27.991Z,63.33
2019-06-07T05:10:54.213Z,63.35
2019-06-07T05:13:27.323Z,63.05
2019-06-07T05:16:01.620Z,63.10
2019-06-07T05:18:36.329Z,63.14
2019-06-07T05:21:11.062Z,63.13
2019-06-07T05:24:07.625Z,63.10
2019-06-07T05:26:20.640Z,63.10
2019-06-07T05:28:54.496Z,63.11
2019-06-07T05:31:27.776Z,62.93
2019-06-07T05:34:01.761Z,62.90
2019-06-07T05:36:36.706Z,62.88
2019-06-07T05:39:10.596Z,62.75
2019-06-07T05:41:44.420Z,62.88
2019-06-07T05:44:18.708Z,62.81
2019-06-07T05:46:52.687Z,62.78
2019-06-07T05:49:25.811Z,62.72
2019-06-07T05:51:59.841Z,62.70
2019-06-07T05:54:35.099Z,62.66
2019-06-07T05:57:09.423Z,62.60
2019-06-07T05:59:45.037Z,62.61
2019-06-07T06:02:24.955Z,62.66
2019-06-07T06:04:53.720Z,62.71
2019-06-07T06:07:27.727Z,62.81
2019-06-07T06:10:01.633Z,62.81
2019-06-07T06:12:40.841Z,62.79
2019-06-07T06:15:11.505Z,62.73
2019-06-07T06:17:49.035Z,62.72
2019-06-07T06:20:21.318Z,62.75
2019-06-07T06:22:55.348Z,62.78
2019-06-07T06:25:32.336Z,62.83
2019-06-07T06:28:11.487Z,62.89
2019-06-07T06:30:40.975Z,62.91
2019-06-07T06:33:27.414Z,62.85
2019-06-07T06:35:51.033Z,62.84
2019-06-07T06:38:25.537Z,62.78
2019-06-07T06:41:15.454Z,62.72
2019-06-07T06:43:35.196Z,62.62
2019-06-07T06:46:09.008Z,62.62
2019-06-07T06:48:48.268Z,62.59
2019-06-07T06:51:18.718Z,62.63
2019-06-07T06:53:52.593Z,62.63
2019-06-07T06:56:26.738Z,62.58
2019-06-07T06:59:34.177Z,62.59
2019-06-07T07:01:35.520Z,62.58
2019-06-07T07:04:12.837Z,62.65
2019-06-07T07:06:45.565Z,62.63
2019-06-07T07:09:19.579Z,62.56
2019-06-07T07:12:10.188Z,62.58
2019-06-07T07:14:29.194Z,62.54
2019-06-07T07:17:03.113Z,62.53
2019-06-07T07:19:36.459Z,62.55
2019-06-07T07:22:10.428Z,62.55
2019-06-07T07:24:44.513Z,62.60
2019-06-07T07:27:18.874Z,62.62
2019-06-07T07:30:29.260Z,62.58
2019-06-07T07:32:28.380Z,62.54
2019-06-07T07:35:02.362Z,62.54
2019-06-07T07:37:35.447Z,62.44
2019-06-07T07:40:55.379Z,62.47
2019-06-07T07:42:46.905Z,62.38
2019-06-07T07:45:20.886Z,62.43
2019-06-07T07:48:08.311Z,62.33
2019-06-07T07:50:28.927Z,62.28
2019-06-07T07:53:03.101Z,62.37
2019-06-07T07:55:37.254Z,62.27
2019-06-07T07:58:11.204Z,62.17
2019-06-07T08:01:00.380Z,62.21
2019-06-07T08:03:20.131Z,62.62
2019-06-07T08:05:58.373Z,61.21
2019-06-07T08:08:29.767Z,61.07
2019-06-07T08:11:03.889Z,60.13
2019-06-07T08:13:37.753Z,60.03
2019-06-07T08:16:16.140Z,60.26
2019-06-07T08:18:51.040Z,59.77
2019-06-07T08:21:26.648Z,59.27
2019-06-07T08:24:03.606Z,59.22
2019-06-07T08:26:34.328Z,57.79
2019-06-07T08:29:08.208Z,58.71
2019-06-07T08:31:42.355Z,58.11
2019-06-07T08:34:16.485Z,57.12
2019-06-07T08:36:52.255Z,57.45
2019-06-07T08:39:26.099Z,57.62
2019-06-07T08:42:14.877Z,57.05
2019-06-07T08:44:35.781Z,56.67
2019-06-07T08:47:19.762Z,55.62
2019-06-07T08:49:45.639Z,55.26
2019-06-07T08:52:19.613Z,54.67
2019-06-07T08:54:54.867Z,54.83
2019-06-07T08:57:29.171Z,53.91
2019-06-07T09:00:16.209Z,53.94
2019-06-07T09:02:39.497Z,54.12
2019-06-07T09:05:14.518Z,53.57
2019-06-07T09:07:48.395Z,53.25
2019-06-07T09:10:22.402Z,53.06
2019-06-07T09:13:03.086Z,52.67
2019-06-07T09:15:31.883Z,52.49
2019-06-07T09:20:49.594Z,51.99
2019-06-07T09:23:23.489Z,51.61
2019-06-07T09:26:12.886Z,50.58
2019-06-07T09:28:37.036Z,50.83
2019-06-07T09:31:12.751Z,50.38
2019-06-07T09:33:46.953Z,49.92
2019-06-07T09:36:21.216Z,49.58
2019-06-07T09:38:58.724Z,49.23
2019-06-07T09:41:46.723Z,48.54
2019-06-07T09:44:21.413Z,48.64
2019-06-07T09:46:42.861Z,48.58
2019-06-07T09:49:30.585Z,47.54
2019-06-07T09:51:52.861Z,47.48
2019-06-07T09:55:03.358Z,47.21
2019-06-07T09:57:05.326Z,46.73
2019-06-07T09:59:38.028Z,46.17
2019-06-07T10:02:13.575Z,46.20
2019-06-07T10:04:47.526Z,45.87
2019-06-07T10:07:31.155Z,45.67
2019-06-07T10:10:12.363Z,45.00
2019-06-07T10:12:32.888Z,44.37
2019-06-07T10:15:09.043Z,42.38
2019-06-07T10:17:43.014Z,44.18
2019-06-07T10:20:16.976Z,44.55
2019-06-07T10:22:51.304Z,43.97
2019-06-07T10:25:25.329Z,43.76
2019-06-07T10:27:59.998Z,42.55
2019-06-07T10:30:34.211Z,42.68
2019-06-07T10:33:08.563Z,42.03
2019-06-07T10:35:42.528Z,41.31
2019-06-07T10:38:16.485Z,42.11
2019-06-07T10:40:50.529Z,42.24
2019-06-07T10:43:24.527Z,42.11
2019-06-07T10:45:58.547Z,41.95
2019-06-07T10:48:32.366Z,42.39
2019-06-07T10:51:06.269Z,42.54
2019-06-07T10:53:40.075Z,42.30
2019-06-07T10:56:14.026Z,42.56
2019-06-07T10:58:47.999Z,42.76
2019-06-07T11:01:22.079Z,42.83
2019-06-07T11:03:57.186Z,42.30
2019-06-07T11:06:31.431Z,43.23
2019-06-07T11:09:08.000Z,44.19
2019-06-07T11:11:41.894Z,43.98
2019-06-07T11:14:15.806Z,43.98
2019-06-07T11:16:49.738Z,43.43
2019-06-07T11:19:23.732Z,43.85
2019-06-07T11:21:57.572Z,44.37
2019-06-07T11:24:30.654Z,44.93
2019-06-07T11:27:06.707Z,44.99
2019-06-07T11:29:40.386Z,45.13
2019-06-07T11:32:14.619Z,45.05
2019-06-07T11:34:47.864Z,44.76
2019-06-07T11:37:21.987Z,45.27
2019-06-07T11:39:57.421Z,44.95
2019-06-07T11:42:31.261Z,46.45
2019-06-07T11:45:07.929Z,45.57
2019-06-07T11:47:42.013Z,45.38
2019-06-07T11:50:16.083Z,45.54
2019-06-07T11:52:49.970Z,45.91
2019-06-07T11:55:23.033Z,46.22
2019-06-07T11:57:56.928Z,46.79
2019-06-07T12:00:33.879Z,46.75
2019-06-07T12:03:05.644Z,46.94
2019-06-07T12:05:39.595Z,46.75
2019-06-07T12:08:13.925Z,47.40
2019-06-07T12:10:48.036Z,48.46
2019-06-07T12:13:21.207Z,47.65
2019-06-07T12:15:55.166Z,47.63
2019-06-07T12:18:30.482Z,47.98
2019-06-07T12:21:05.886Z,48.39
2019-06-07T12:23:40.015Z,48.18
2019-06-07T12:26:14.531Z,48.47
2019-06-07T12:28:48.825Z,48.62
2019-06-07T12:31:22.650Z,49.45
2019-06-07T12:33:56.672Z,49.31
2019-06-07T12:36:30.562Z,50.16
2019-06-07T12:39:06.034Z,49.34
2019-06-07T12:41:40.134Z,49.50
2019-06-07T12:44:14.550Z,49.88
2019-06-07T12:46:48.537Z,49.51
2019-06-07T12:49:23.597Z,49.76
2019-06-07T12:51:57.464Z,49.70
2019-06-07T12:54:31.442Z,50.00
2019-06-07T12:57:05.584Z,50.06
2019-06-07T12:59:39.487Z,50.21
2019-06-07T13:02:14.122Z,50.30
2019-06-07T13:04:48.358Z,51.04
2019-06-07T13:07:22.904Z,50.10
2019-06-07T13:09:58.026Z,50.63
2019-06-07T13:12:32.123Z,52.19
2019-06-07T13:15:07.337Z,52.30
2019-06-07T13:17:41.238Z,52.51
2019-06-07T13:20:16.128Z,53.25
2019-06-07T13:22:50.102Z,52.63
2019-06-07T13:25:41.193Z,52.57
2019-06-07T13:28:00.016Z,52.95
2019-06-07T13:30:36.303Z,52.94
2019-06-07T13:33:08.730Z,53.11
2019-06-07T13:35:41.780Z,53.33
2019-06-07T13:38:29.066Z,53.69
2019-06-07T13:41:03.181Z,53.21
2019-06-07T13:43:37.089Z,52.97
2019-06-07T13:46:13.082Z,52.93
2019-06-07T13:48:46.510Z,53.29
2019-06-07T13:51:22.737Z,53.21
2019-06-07T13:53:57.069Z,53.34
2019-06-07T13:56:31.031Z,53.46
2019-06-07T13:59:04.366Z,53.25
2019-06-07T14:01:38.438Z,53.33
2019-06-07T14:04:12.586Z,53.11
2019-06-07T14:06:46.762Z,53.04
2019-06-07T14:09:21.173Z,53.16
2019-06-07T14:11:55.137Z,53.18
2019-06-07T14:14:29.173Z,53.21
2019-06-07T14:17:08.493Z,53.24
2019-06-07T14:19:42.536Z,53.29
2019-06-07T14:22:16.732Z,53.32
2019-06-07T14:24:51.166Z,53.23
2019-06-07T14:27:25.520Z,53.26
2019-06-07T14:30:00.695Z,53.11
2019-06-07T14:32:34.876Z,52.94
2019-06-07T14:35:09.168Z,53.62
2019-06-07T14:37:43.270Z,53.50
2019-06-07T14:40:17.717Z,53.42
2019-06-07T14:42:51.686Z,53.41
2019-06-07T14:45:25.530Z,53.60
2019-06-07T14:47:59.552Z,53.59
2019-06-07T14:50:32.714Z,53.57
2019-06-07T14:53:06.800Z,53.74
2019-06-07T14:55:40.929Z,53.63
2019-06-07T14:58:14.943Z,53.59
2019-06-07T15:00:49.083Z,53.85
2019-06-07T15:03:23.226Z,53.83
2019-06-07T15:05:58.487Z,53.61
2019-06-07T15:08:33.035Z,53.70
2019-06-07T15:11:07.326Z,54.04
2019-06-07T15:13:41.424Z,54.19
2019-06-07T15:16:15.670Z,54.28
2019-06-07T15:18:49.661Z,54.21
2019-06-07T15:21:23.032Z,54.35
2019-06-07T15:23:57.012Z,54.48
2019-06-07T15:26:30.787Z,54.60
2019-06-07T15:29:04.876Z,54.62
2019-06-07T15:31:40.539Z,54.54
2019-06-07T15:34:14.706Z,54.75
2019-06-07T15:36:48.758Z,54.89
2019-06-07T15:39:22.166Z,54.63
2019-06-07T15:41:56.284Z,54.83
2019-06-07T15:44:31.141Z,54.68
2019-06-07T15:47:05.322Z,55.06
2019-06-07T15:49:40.346Z,55.32
2019-06-07T15:52:14.634Z,56.31
2019-06-07T15:54:49.265Z,56.66
2019-06-07T15:57:24.544Z,56.24
2019-06-07T16:00:00.094Z,56.08
2019-06-07T16:02:35.644Z,56.18
2019-06-07T16:05:10.133Z,55.74
2019-06-07T16:07:44.584Z,55.82
2019-06-07T16:10:19.137Z,56.44
2019-06-07T16:13:00.157Z,55.90
2019-06-07T16:15:30.564Z,56.00
2019-06-07T16:18:06.139Z,56.03
2019-06-07T16:20:41.471Z,55.98
2019-06-07T16:23:15.767Z,55.90
2019-06-07T16:25:49.859Z,55.99
2019-06-07T16:28:23.886Z,55.86
2019-06-07T16:30:57.134Z,55.80
2019-06-07T16:33:31.134Z,55.83
2019-06-07T16:36:04.367Z,55.75
2019-06-07T16:38:38.470Z,55.76
2019-06-07T16:41:17.409Z,55.78
2019-06-07T16:43:52.654Z,55.79
2019-06-07T16:46:26.694Z,55.79
2019-06-07T16:49:00.529Z,55.80
2019-06-07T16:51:34.490Z,55.58
2019-06-07T16:54:08.512Z,55.69
2019-06-07T16:56:47.582Z,56.05
2019-06-07T16:59:18.138Z,56.37
2019-06-07T17:01:52.593Z,56.47
2019-06-07T17:04:26.518Z,56.55
2019-06-07T17:06:59.756Z,56.93
2019-06-07T17:09:33.788Z,56.84
2019-06-07T17:12:09.456Z,56.60
2019-06-07T17:14:44.561Z,56.99
2019-06-07T17:17:18.550Z,57.17
2019-06-07T17:19:52.471Z,57.13
2019-06-07T17:22:25.668Z,58.40
2019-06-07T17:24:59.523Z,57.69
2019-06-07T17:27:33.656Z,57.63
2019-06-07T17:30:10.080Z,57.60
2019-06-07T17:32:56.316Z,57.71
2019-06-07T17:35:19.869Z,57.95
2019-06-07T17:37:53.833Z,58.25
2019-06-07T17:40:27.713Z,58.09
2019-06-07T17:43:01.578Z,58.17
2019-06-07T17:45:35.392Z,58.10
2019-06-07T17:48:09.296Z,58.29
2019-06-07T17:50:43.462Z,58.47
2019-06-07T17:53:17.725Z,58.66
2019-06-07T17:55:50.762Z,58.65
2019-06-07T17:58:24.567Z,58.69
2019-06-07T18:00:58.411Z,58.29
2019-06-07T18:03:32.185Z,58.54
2019-06-07T18:06:06.143Z,58.83
2019-06-07T18:08:40.426Z,58.89
2019-06-07T18:11:14.195Z,59.26
2019-06-07T18:13:48.361Z,59.24
2019-06-07T18:16:23.758Z,59.39
2019-06-07T18:18:57.681Z,59.74
2019-06-07T18:21:31.526Z,59.75
2019-06-07T18:24:05.681Z,59.82
2019-06-07T18:26:39.573Z,59.78
2019-06-07T18:29:13.478Z,59.77
2019-06-07T18:31:48.622Z,60.48
2019-06-07T18:34:22.566Z,60.39
2019-06-07T18:36:56.559Z,61.28
2019-06-07T18:39:29.720Z,61.00
2019-06-07T18:42:03.740Z,60.96
2019-06-07T18:44:36.842Z,60.92
2019-06-07T18:47:10.679Z,61.31
2019-06-07T18:49:44.743Z,61.40
2019-06-07T18:52:19.462Z,61.45
2019-06-07T18:54:53.061Z,61.46
2019-06-07T18:57:27.225Z,61.63
2019-06-07T19:00:05.540Z,61.50
2019-06-07T19:02:40.131Z,61.74
2019-06-07T19:05:14.818Z,61.76
2019-06-07T19:07:48.754Z,62.16
2019-06-07T19:10:23.600Z,62.17
2019-06-07T19:13:00.286Z,62.41
2019-06-07T19:15:35.060Z,62.22
2019-06-07T19:18:09.205Z,62.10
2019-06-07T19:20:42.388Z,62.36
2019-06-07T19:23:16.888Z,62.65
2019-06-07T19:25:50.662Z,62.58
2019-06-07T19:28:24.914Z,62.87
2019-06-07T19:30:59.230Z,62.68
2019-06-07T19:33:48.244Z,63.30
2019-06-07T19:36:09.290Z,63.38
2019-06-07T19:38:44.266Z,63.44
2019-06-07T19:41:20.098Z,63.90
2019-06-07T19:43:54.174Z,64.34
2019-06-07T19:46:27.385Z,65.12
2019-06-07T19:49:03.006Z,65.17
2019-06-07T19:51:37.402Z,64.04
2019-06-07T19:54:11.328Z,64.38
2019-06-07T19:56:45.389Z,64.63
2019-06-07T19:59:19.578Z,64.73
2019-06-07T20:01:53.838Z,65.04
2019-06-07T20:04:28.189Z,64.97
2019-06-07T20:07:03.898Z,65.00
2019-06-07T20:09:38.226Z,64.97
2019-06-07T20:12:12.137Z,64.94
2019-06-07T20:14:46.007Z,65.02
2019-06-07T20:17:20.306Z,65.39
2019-06-07T20:19:54.239Z,65.45
2019-06-07T20:22:28.345Z,65.93
2019-06-07T20:25:03.186Z,65.93
2019-06-07T20:27:37.436Z,65.59
2019-06-07T20:30:13.084Z,65.43
2019-06-07T20:32:46.934Z,65.45
2019-06-07T20:35:20.890Z,65.38
2019-06-07T20:37:56.763Z,65.49
2019-06-07T20:40:30.709Z,65.58
2019-06-07T20:43:05.690Z,65.73
2019-06-07T20:45:39.835Z,65.77
2019-06-07T20:48:14.034Z,65.71
2019-06-07T20:50:48.209Z,65.78
2019-06-07T20:53:22.591Z,65.96
2019-06-07T20:55:56.631Z,66.01
2019-06-07T20:58:30.003Z,66.35
2019-06-07T21:01:05.470Z,66.29
2019-06-07T21:03:39.573Z,66.18
2019-06-07T21:06:12.766Z,65.96
2019-06-07T21:08:46.981Z,66.26
2019-06-07T21:11:21.073Z,66.30
2019-06-07T21:13:54.277Z,65.76
2019-06-07T21:16:28.158Z,66.43
2019-06-07T21:19:02.164Z,66.58
2019-06-07T21:21:36.270Z,66.72
2019-06-07T21:24:10.891Z,66.53
2019-06-07T21:26:44.936Z,66.75
2019-06-07T21:29:18.727Z,66.71
2019-06-07T21:31:52.844Z,66.62
2019-06-07T21:34:25.994Z,66.56
2019-06-07T21:36:59.773Z,66.61
2019-06-07T21:39:33.605Z,67.01
2019-06-07T21:42:08.151Z,66.94
2019-06-07T21:44:42.155Z,66.70
2019-06-07T21:47:16.365Z,66.67
2019-06-07T21:49:50.759Z,66.71
2019-06-07T21:52:24.987Z,66.83
2019-06-07T21:54:59.002Z,66.92
2019-06-07T21:57:32.206Z,66.76
2019-06-07T22:00:11.431Z,66.86
2019-06-07T22:02:46.117Z,66.89
2019-06-07T22:05:20.278Z,66.89
2019-06-07T22:07:53.569Z,66.99
2019-06-07T22:10:27.560Z,67.29
2019-06-07T22:13:00.573Z,67.24
2019-06-07T22:15:37.432Z,67.25
2019-06-07T22:18:10.832Z,67.24
2019-06-07T22:20:44.756Z,67.23
2019-06-07T22:23:18.623Z,67.31
2019-06-07T22:25:52.496Z,67.40
2019-06-07T22:28:26.328Z,67.49
2019-06-07T22:31:00.349Z,67.33
2019-06-07T22:33:33.364Z,67.32
2019-06-07T22:36:11.065Z,67.36
2019-06-07T22:38:45.020Z,67.54
2019-06-07T22:41:18.930Z,67.41
2019-06-07T22:43:52.815Z,67.39
2019-06-07T22:46:36.985Z,67.38
2019-06-07T22:49:02.602Z,67.39
2019-06-07T22:51:35.791Z,67.44
2019-06-07T22:54:09.701Z,67.51
2019-06-07T22:56:50.937Z,67.53
2019-06-07T22:59:24.755Z,67.56
2019-06-07T23:01:58.675Z,67.56
2019-06-07T23:04:32.789Z,67.59
2019-06-07T23:07:06.665Z,67.64
2019-06-07T23:09:40.461Z,67.76
2019-06-07T23:12:15.298Z,67.68
2019-06-07T23:14:49.173Z,67.72
2019-06-07T23:17:23.025Z,67.70
2019-06-07T23:19:56.935Z,67.73
2019-06-07T23:22:30.781Z,67.75
2019-06-07T23:25:06.816Z,67.91
2019-06-07T23:27:40.773Z,67.86
2019-06-07T23:30:14.980Z,67.81
2019-06-07T23:32:49.083Z,67.86
2019-06-07T23:35:23.000Z,68.01
2019-06-07T23:37:56.925Z,68.10
2019-06-07T23:40:30.779Z,68.05
2019-06-07T23:43:04.541Z,68.03
2019-06-07T23:45:38.383Z,68.08
2019-06-07T23:48:13.614Z,68.13
2019-06-07T23:50:47.653Z,68.36
2019-06-07T23:53:22.159Z,68.22
2019-06-07T23:55:56.333Z,68.29
2019-06-07T23:58:30.282Z,68.32
